Time;durP1;ratioP1;P1;durP2;ratioP2;P2;SDS_P1;SDS_P2;PMS_P1;PMS_P2;Temp;Humidity;BMP_temperature;BMP_pressure;BME280_temperature;BME280_humidity;BME280_pressure;Samples;Min_cycle;Max_cycle;Signal;HPM_P1;HPM_P2
2023/11/23 00:01:18;;;;;;;131.60;14.50;;;;;;;2.41;100.00;98986.53;4987075;28;20253;-53
2023/11/23 00:03:44;;;;;;;113.30;13.07;;;;;;;2.36;100.00;98999.16;4985787;28;20156;-53
2023/11/23 00:06:09;;;;;;;117.20;11.65;;;;;;;2.16;100.00;98988.81;4985307;28;20050;-53
2023/11/23 00:08:34;;;;;;;76.75;9.52;;;;;;;2.29;100.00;98981.69;4987115;28;20337;-53
2023/11/23 00:11:00;;;;;;;119.50;13.63;;;;;;;2.38;100.00;98979.56;4985702;28;20045;-54
2023/11/23 00:13:25;;;;;;;122.57;14.52;;;;;;;2.31;100.00;98974.97;4987647;28;20084;-54
2023/11/23 00:15:51;;;;;;;100.80;11.73;;;;;;;2.12;100.00;98971.56;4986036;28;20137;-54
2023/11/23 00:18:16;;;;;;;157.93;14.90;;;;;;;2.28;100.00;98978.25;4986822;28;20034;-54
2023/11/23 00:20:43;;;;;;;120.95;13.88;;;;;;;2.25;100.00;98975.53;4986389;28;20091;-54
2023/11/23 00:23:09;;;;;;;108.63;13.65;;;;;;;2.03;100.00;98982.25;4985179;28;20025;-53
2023/11/23 00:25:35;;;;;;;138.00;14.88;;;;;;;1.98;100.00;98987.97;4986371;28;20034;-54
2023/11/23 00:28:01;;;;;;;119.72;14.07;;;;;;;1.90;100.00;98993.59;4988317;28;20046;-54
2023/11/23 00:30:26;;;;;;;143.88;14.15;;;;;;;1.76;100.00;98992.97;4986186;28;20038;-53
2023/11/23 00:32:52;;;;;;;129.93;14.48;;;;;;;1.75;100.00;98993.75;4985934;28;20026;-54
2023/11/23 00:35:18;;;;;;;132.18;14.90;;;;;;;1.77;100.00;98988.69;4984940;28;20022;-53
2023/11/23 00:37:44;;;;;;;92.75;11.48;;;;;;;1.94;100.00;98980.13;4986665;28;20049;-54
2023/11/23 00:40:12;;;;;;;141.13;13.73;;;;;;;1.98;100.00;98980.28;4982987;28;20649;-53
2023/11/23 00:42:38;;;;;;;89.60;11.05;;;;;;;2.04;100.00;98972.88;4988304;28;20026;-53
2023/11/23 00:45:04;;;;;;;114.40;13.02;;;;;;;2.03;100.00;98969.41;4985144;28;20034;-53
2023/11/23 00:47:30;;;;;;;124.72;14.60;;;;;;;1.95;100.00;98950.22;4985305;28;20524;-53
2023/11/23 00:49:55;;;;;;;95.43;9.27;;;;;;;1.83;100.00;98947.97;4987453;28;20050;-54
2023/11/23 00:52:21;;;;;;;150.63;14.77;;;;;;;1.73;100.00;98959.47;4985485;28;20040;-53
2023/11/23 00:54:47;;;;;;;120.78;15.25;;;;;;;1.61;100.00;98957.22;4987112;28;20041;-55
2023/11/23 00:57:13;;;;;;;133.88;13.55;;;;;;;1.60;100.00;98952.84;4985411;28;20042;-53
2023/11/23 00:59:38;;;;;;;157.60;15.55;;;;;;;1.53;100.00;98958.53;4989364;28;20097;-54
2023/11/23 01:02:04;;;;;;;114.95;13.52;;;;;;;1.48;100.00;98965.97;4985669;28;20231;-55
2023/11/23 01:04:29;;;;;;;134.25;12.73;;;;;;;1.53;100.00;98956.81;4985496;28;20021;-55
2023/11/23 01:06:55;;;;;;;158.77;16.42;;;;;;;1.53;100.00;98948.25;4985978;28;20040;-55
2023/11/23 01:09:21;;;;;;;173.00;14.23;;;;;;;1.43;100.00;98942.69;4985999;28;20406;-54
2023/11/23 01:11:46;;;;;;;123.00;15.07;;;;;;;1.23;100.00;98945.97;4984456;28;20917;-53
2023/11/23 01:14:12;;;;;;;149.27;16.60;;;;;;;1.29;100.00;98941.13;4986376;28;20070;-53
2023/11/23 01:16:38;;;;;;;102.25;13.10;;;;;;;1.26;100.00;98933.31;4986492;28;20919;-53
2023/11/23 01:19:03;;;;;;;141.38;12.35;;;;;;;1.20;100.00;98941.56;4984782;28;20034;-52
2023/11/23 01:21:29;;;;;;;155.15;15.32;;;;;;;1.15;100.00;98945.59;4984140;28;20387;-53
2023/11/23 01:23:54;;;;;;;114.30;13.60;;;;;;;1.09;100.00;98945.28;4986877;28;20032;-54
2023/11/23 01:26:20;;;;;;;153.50;15.88;;;;;;;0.98;100.00;98940.50;4984834;28;20389;-54
2023/11/23 01:28:45;;;;;;;133.35;14.85;;;;;;;0.98;100.00;98937.03;4985440;28;20029;-53
2023/11/23 01:31:10;;;;;;;110.65;12.77;;;;;;;0.93;100.00;98935.94;4984182;28;20445;-53
2023/11/23 01:33:36;;;;;;;123.25;14.43;;;;;;;1.04;100.00;98927.13;4985098;28;20140;-53
2023/11/23 01:36:01;;;;;;;130.23;13.55;;;;;;;0.98;100.00;98927.69;4985938;28;20503;-53
2023/11/23 01:38:27;;;;;;;140.30;11.98;;;;;;;1.13;100.00;98935.25;4984595;28;20424;-53
2023/11/23 01:40:54;;;;;;;121.00;11.13;;;;;;;1.11;100.00;98946.25;4983078;28;20496;-53
2023/11/23 01:43:20;;;;;;;156.40;15.15;;;;;;;1.17;100.00;98949.97;4985071;28;20030;-53
2023/11/23 01:45:46;;;;;;;99.68;12.90;;;;;;;1.01;100.00;98957.69;4985106;28;20034;-53
2023/11/23 01:48:15;;;;;;;135.85;13.65;;;;;;;0.98;100.00;98966.13;4985750;28;20063;-53
2023/11/23 01:50:42;;;;;;;108.18;13.23;;;;;;;0.88;100.00;98964.75;4984743;28;20144;-53
2023/11/23 01:53:08;;;;;;;111.00;13.10;;;;;;;0.90;100.00;98969.97;4986228;28;20100;-53
2023/11/23 01:55:34;;;;;;;115.57;12.90;;;;;;;0.87;100.00;98969.81;4983973;28;20438;-54
2023/11/23 01:58:03;;;;;;;129.68;13.55;;;;;;;0.74;100.00;98970.88;4991296;28;20555;-54
2023/11/23 02:00:29;;;;;;;150.93;14.88;;;;;;;0.80;100.00;98971.16;4986787;28;20185;-53
2023/11/23 02:02:55;;;;;;;136.57;14.43;;;;;;;0.75;100.00;98970.91;4989440;28;20426;-53
2023/11/23 02:05:24;;;;;;;131.32;13.63;;;;;;;0.65;100.00;98961.00;4988240;28;20040;-54
2023/11/23 02:07:50;;;;;;;141.88;14.30;;;;;;;0.58;100.00;98957.25;4987368;28;20172;-55
2023/11/23 02:10:15;;;;;;;157.68;14.23;;;;;;;0.63;100.00;98950.69;4984289;28;20511;-54
2023/11/23 02:12:42;;;;;;;107.70;11.52;;;;;;;0.52;100.00;98937.31;4989714;28;20036;-53
2023/11/23 02:15:09;;;;;;;132.68;13.05;;;;;;;0.58;100.00;98941.91;4988066;28;20029;-53
2023/11/23 02:17:34;;;;;;;125.43;12.27;;;;;;;0.54;100.00;98924.59;4987985;28;20103;-53
2023/11/23 02:19:59;;;;;;;109.18;11.63;;;;;;;0.50;100.00;98928.69;4988848;28;20246;-53
2023/11/23 02:22:26;;;;;;;170.27;15.23;;;;;;;0.48;100.00;98934.53;4987036;28;20133;-52
2023/11/23 02:24:52;;;;;;;115.32;12.40;;;;;;;0.35;100.00;98923.66;4988725;28;20365;-53
2023/11/23 02:27:17;;;;;;;143.52;14.55;;;;;;;0.33;100.00;98911.59;4986271;28;20140;-53
2023/11/23 02:29:43;;;;;;;119.05;12.55;;;;;;;0.31;100.00;98901.28;4990570;28;20018;-53
2023/11/23 02:32:09;;;;;;;87.72;10.00;;;;;;;0.27;100.00;98890.78;4987559;28;20211;-53
2023/11/23 02:34:36;;;;;;;143.43;13.77;;;;;;;0.23;100.00;98887.19;4987285;28;20022;-53
2023/11/23 02:37:01;;;;;;;116.97;10.93;;;;;;;0.25;100.00;98891.59;4989060;28;20162;-53
2023/11/23 02:39:27;;;;;;;160.68;14.13;;;;;;;0.31;100.00;98885.91;4988155;28;20572;-53
2023/11/23 02:41:54;;;;;;;135.32;13.20;;;;;;;0.45;100.00;98883.19;4987166;28;20073;-54
2023/11/23 02:44:19;;;;;;;155.00;15.23;;;;;;;0.66;100.00;98896.19;4986618;28;20113;-53
2023/11/23 02:46:45;;;;;;;102.78;7.53;;;;;;;0.52;100.00;98909.16;4990243;28;20124;-54
2023/11/23 02:49:10;;;;;;;145.02;13.05;;;;;;;0.63;100.00;98899.47;4987420;28;20452;-53
2023/11/23 02:51:35;;;;;;;121.80;12.18;;;;;;;0.78;100.00;98914.75;4988679;28;20041;-53
2023/11/23 02:54:01;;;;;;;108.18;10.77;;;;;;;0.78;100.00;98917.31;4987769;28;20038;-52
2023/11/23 02:56:26;;;;;;;165.13;11.75;;;;;;;0.75;100.00;98919.69;4986400;28;20181;-53
2023/11/23 02:58:53;;;;;;;132.60;9.25;;;;;;;0.76;100.00;98918.91;4986948;28;20026;-53
2023/11/23 03:01:21;;;;;;;121.43;11.50;;;;;;;0.86;100.00;98917.69;4987876;28;20057;-53
2023/11/23 03:03:47;;;;;;;101.03;11.10;;;;;;;0.90;100.00;98916.16;4988253;28;20486;-53
2023/11/23 03:06:13;;;;;;;130.65;11.93;;;;;;;0.93;100.00;98918.91;4987679;28;20095;-53
2023/11/23 03:08:38;;;;;;;106.15;12.45;;;;;;;1.20;100.00;98907.34;4984836;28;20030;-53
2023/11/23 03:11:04;;;;;;;108.18;11.52;;;;;;;1.13;100.00;98917.31;4986133;28;20352;-53
2023/11/23 03:13:30;;;;;;;158.70;14.18;;;;;;;1.14;100.00;98906.25;4987463;28;20175;-53
2023/11/23 03:15:55;;;;;;;102.68;11.60;;;;;;;1.20;100.00;98905.69;4987205;28;20037;-53
2023/11/23 03:18:21;;;;;;;137.88;11.88;;;;;;;1.00;100.00;98903.00;4986339;28;20048;-53
2023/11/23 03:20:46;;;;;;;105.18;7.85;;;;;;;1.00;100.00;98903.00;4986969;28;20098;-54
2023/11/23 03:23:12;;;;;;;135.65;13.05;;;;;;;1.14;100.00;98908.81;4987472;28;20048;-54
2023/11/23 03:25:37;;;;;;;111.80;12.10;;;;;;;1.23;100.00;98907.50;4986203;28;20037;-54
2023/11/23 03:28:04;;;;;;;78.28;7.25;;;;;;;1.04;100.00;98909.19;4987199;28;20682;-53
2023/11/23 03:30:29;;;;;;;154.32;14.63;;;;;;;0.96;100.00;98913.91;4987803;28;20129;-53
2023/11/23 03:32:55;;;;;;;129.98;12.73;;;;;;;0.85;100.00;98907.38;4988609;28;20101;-53
2023/11/23 03:35:20;;;;;;;111.38;8.23;;;;;;;0.88;100.00;98903.28;4985333;28;20037;-53
2023/11/23 03:37:45;;;;;;;119.55;11.73;;;;;;;0.97;100.00;98901.97;4985872;28;20026;-54
2023/11/23 03:40:11;;;;;;;155.10;13.75;;;;;;;0.93;100.00;98911.22;4984309;28;20488;-53
2023/11/23 03:42:37;;;;;;;87.18;10.57;;;;;;;1.03;100.00;98913.41;4986862;28;20464;-54
2023/11/23 03:45:03;;;;;;;90.95;7.78;;;;;;;1.18;100.00;98914.97;4987038;28;20105;-53
2023/11/23 03:47:28;;;;;;;160.80;12.65;;;;;;;1.11;100.00;98908.66;4985022;28;20034;-54
2023/11/23 03:49:54;;;;;;;99.40;12.20;;;;;;;1.20;100.00;98897.09;4986524;28;20022;-53
2023/11/23 03:52:19;;;;;;;90.10;8.15;;;;;;;1.00;100.00;98903.00;4986203;28;20168;-53
2023/11/23 03:54:45;;;;;;;117.40;11.20;;;;;;;0.99;100.00;98897.81;4987197;28;20037;-53
2023/11/23 03:57:12;;;;;;;88.70;11.43;;;;;;;0.90;100.00;98901.66;4985854;28;20085;-54
2023/11/23 03:59:37;;;;;;;159.05;15.60;;;;;;;0.93;100.00;98900.97;4987823;28;20629;-54
2023/11/23 04:02:03;;;;;;;109.47;12.10;;;;;;;0.77;100.00;98891.59;4988334;28;20048;-53
2023/11/23 04:04:29;;;;;;;131.38;11.80;;;;;;;0.83;100.00;98886.81;4987579;28;20633;-54
2023/11/23 04:06:54;;;;;;;109.28;12.70;;;;;;;0.80;100.00;98890.88;4986790;28;20121;-54
2023/11/23 04:09:20;;;;;;;114.40;9.85;;;;;;;0.75;100.00;98890.66;4985609;28;20034;-53
2023/11/23 04:11:45;;;;;;;117.75;13.60;;;;;;;0.77;100.00;98881.38;4984838;28;20500;-54
2023/11/23 04:14:10;;;;;;;113.40;12.32;;;;;;;0.78;100.00;98878.88;4988283;28;20022;-53
2023/11/23 04:16:36;;;;;;;150.13;14.98;;;;;;;0.72;100.00;98875.13;4985252;28;20046;-54
2023/11/23 04:19:02;;;;;;;111.07;12.38;;;;;;;0.70;100.00;98872.50;4985388;28;20223;-54
2023/11/23 04:21:27;;;;;;;119.22;12.80;;;;;;;0.77;100.00;98869.44;4993185;28;20469;-54
2023/11/23 04:23:53;;;;;;;87.55;7.30;;;;;;;0.54;100.00;98863.16;4987761;28;20141;-53
2023/11/23 04:26:18;;;;;;;127.70;13.20;;;;;;;0.64;100.00;98864.53;4985675;28;20446;-53
2023/11/23 04:28:43;;;;;;;105.93;12.88;;;;;;;0.54;100.00;98858.03;4987752;28;20113;-53
2023/11/23 04:31:09;;;;;;;91.07;10.80;;;;;;;0.56;100.00;98856.44;4986674;28;20238;-53
2023/11/23 04:33:35;;;;;;;98.63;7.35;;;;;;;0.50;100.00;98851.91;4985137;28;20121;-53
2023/11/23 04:36:00;;;;;;;93.55;11.57;;;;;;;0.56;100.00;98855.56;4986028;28;20052;-54
2023/11/23 04:38:26;;;;;;;118.35;11.45;;;;;;;0.56;100.00;98859.00;4985287;28;20057;-54
2023/11/23 04:40:51;;;;;;;134.07;13.18;;;;;;;0.46;100.00;98851.66;4984678;28;20042;-53
2023/11/23 04:43:16;;;;;;;91.45;10.48;;;;;;;0.50;100.00;98851.00;4985685;28;20025;-54
2023/11/23 04:45:43;;;;;;;96.00;10.63;;;;;;;0.51;100.00;98840.84;4986825;28;20034;-53
2023/11/23 04:48:08;;;;;;;119.45;13.48;;;;;;;0.50;100.00;98840.78;4985988;28;20041;-53
2023/11/23 04:50:36;;;;;;;146.65;14.80;;;;;;;0.54;100.00;98841.78;4983971;28;20053;-53
2023/11/23 04:53:02;;;;;;;106.72;13.75;;;;;;;0.41;100.00;98840.31;4986990;28;20030;-53
2023/11/23 04:55:28;;;;;;;164.30;15.90;;;;;;;0.43;100.00;98848.94;4983515;28;20421;-53
2023/11/23 04:57:54;;;;;;;135.77;14.35;;;;;;;0.36;100.00;98837.50;4986077;28;20609;-53
2023/11/23 05:00:24;;;;;;;100.15;13.30;;;;;;;0.32;100.00;98836.47;4986258;28;20022;-53
2023/11/23 05:02:53;;;;;;;121.63;13.23;;;;;;;0.29;100.00;98828.63;4987082;28;20314;-53
2023/11/23 05:05:18;;;;;;;116.00;13.57;;;;;;;0.29;100.00;98840.56;4985638;28;20493;-53
2023/11/23 05:07:44;;;;;;;108.72;12.85;;;;;;;0.22;100.00;98839.38;4985589;28;20033;-53
2023/11/23 05:10:09;;;;;;;121.60;13.02;;;;;;;0.18;100.00;98853.66;4983070;28;20026;-53
2023/11/23 05:12:35;;;;;;;149.85;15.60;;;;;;;0.20;100.00;98849.53;4986801;28;20422;-54
2023/11/23 05:15:01;;;;;;;116.60;12.48;;;;;;;0.16;100.00;98849.28;4985357;28;20563;-53
2023/11/23 05:17:26;;;;;;;183.43;16.85;;;;;;;0.11;100.00;98851.63;4983348;28;20039;-54
2023/11/23 05:19:52;;;;;;;110.63;12.90;;;;;;;0.07;100.00;98848.00;4984842;28;20022;-53
2023/11/23 05:22:17;;;;;;;134.32;13.55;;;;;;;0.07;100.00;98845.44;4985300;28;20070;-53
2023/11/23 05:24:42;;;;;;;123.45;13.20;;;;;;;0.05;100.00;98844.50;4984648;28;20478;-53
2023/11/23 05:27:08;;;;;;;115.88;12.75;;;;;;;-0.04;100.00;98833.78;4984460;28;20072;-54
2023/11/23 05:29:33;;;;;;;151.52;15.10;;;;;;;0.01;100.00;98837.44;4983935;28;20034;-53
2023/11/23 05:31:59;;;;;;;120.60;13.73;;;;;;;0.01;100.00;98834.91;4983853;28;20046;-53
2023/11/23 05:34:24;;;;;;;106.10;13.85;;;;;;;-0.05;100.00;98843.13;4984982;28;20022;-53
2023/11/23 05:36:50;;;;;;;135.70;15.18;;;;;;;-0.06;100.00;98850.72;4985659;28;20037;-53
2023/11/23 05:39:15;;;;;;;125.20;14.75;;;;;;;-0.08;100.00;98857.44;4984117;28;20046;-53
2023/11/23 05:41:40;;;;;;;130.60;17.23;;;;;;;-0.17;100.00;98858.69;4985556;28;20093;-53
2023/11/23 05:44:06;;;;;;;174.48;19.17;;;;;;;-0.14;100.00;98865.66;4986641;28;20030;-53
2023/11/23 05:46:32;;;;;;;186.15;21.38;;;;;;;-0.18;100.00;98856.91;4982896;28;20354;-53
2023/11/23 05:48:57;;;;;;;118.82;17.42;;;;;;;-0.20;100.00;98861.09;4986634;28;20054;-54
2023/11/23 05:51:22;;;;;;;120.03;18.17;;;;;;;-0.25;100.00;98866.75;4983327;28;20312;-53
2023/11/23 05:53:48;;;;;;;145.18;17.40;;;;;;;-0.30;100.00;98861.41;4984713;28;20044;-53
2023/11/23 05:56:13;;;;;;;107.43;15.30;;;;;;;-0.27;100.00;98864.09;4984476;28;20631;-53
2023/11/23 05:58:39;;;;;;;179.13;16.95;;;;;;;-0.28;100.00;98857.22;4986636;28;20026;-54
2023/11/23 06:01:04;;;;;;;116.15;13.05;;;;;;;-0.28;100.00;98863.25;4982810;28;20038;-54
2023/11/23 06:03:31;;;;;;;141.30;15.90;;;;;;;-0.29;100.00;98860.59;4987085;28;20300;-53
2023/11/23 06:05:56;;;;;;;134.15;16.67;;;;;;;-0.26;100.00;98855.63;4983664;28;20092;-54
2023/11/23 06:08:22;;;;;;;115.95;14.98;;;;;;;-0.31;100.00;98857.94;4986550;28;20022;-53
2023/11/23 06:10:47;;;;;;;125.85;14.02;;;;;;;-0.31;100.00;98857.06;4982297;28;20038;-54
2023/11/23 06:13:12;;;;;;;122.65;14.48;;;;;;;-0.28;100.00;98857.22;4987013;28;20026;-53
2023/11/23 06:15:38;;;;;;;160.20;16.27;;;;;;;-0.36;100.00;98855.94;4983965;28;20056;-53
2023/11/23 06:18:04;;;;;;;102.10;11.55;;;;;;;-0.36;100.00;98846.59;4984706;28;20778;-53
2023/11/23 06:20:29;;;;;;;152.32;16.33;;;;;;;-0.31;100.00;98841.72;4984832;28;20198;-53
2023/11/23 06:22:55;;;;;;;108.80;15.23;;;;;;;-0.27;100.00;98843.66;4986165;28;20524;-53
2023/11/23 06:25:20;;;;;;;125.25;16.17;;;;;;;-0.32;100.00;98856.19;4984537;28;20480;-53
2023/11/23 06:27:47;;;;;;;109.18;15.23;;;;;;;-0.36;100.00;98849.16;4980724;28;20034;-53
2023/11/23 06:30:13;;;;;;;93.15;8.98;;;;;;;-0.35;100.00;98852.56;4983321;28;20135;-53
2023/11/23 06:32:38;;;;;;;184.32;17.80;;;;;;;-0.30;100.00;98861.41;4984269;28;20505;-52
2023/11/23 06:35:04;;;;;;;142.98;15.30;;;;;;;-0.20;100.00;98858.53;4984440;28;20497;-53
2023/11/23 06:37:30;;;;;;;121.15;14.40;;;;;;;-0.19;100.00;98861.97;4982529;28;20156;-53
2023/11/23 06:39:55;;;;;;;122.13;14.07;;;;;;;-0.17;100.00;98855.25;4983215;28;20497;-53
2023/11/23 06:42:21;;;;;;;116.28;13.88;;;;;;;-0.14;100.00;98856.28;4985533;28;20295;-53
2023/11/23 06:44:47;;;;;;;97.78;12.68;;;;;;;-0.06;100.00;98850.72;4985519;28;20014;-53
2023/11/23 06:47:12;;;;;;;130.07;14.57;;;;;;;0.05;100.00;98848.72;4987364;28;20057;-53
2023/11/23 06:49:42;;;;;;;156.90;14.77;;;;;;;0.22;100.00;98841.94;4988537;28;20028;-54
2023/11/23 06:52:08;;;;;;;108.75;13.15;;;;;;;0.34;100.00;98829.75;4989087;28;20677;-53
2023/11/23 06:54:33;;;;;;;173.43;16.35;;;;;;;0.43;100.00;98839.59;4986535;28;20052;-53
2023/11/23 06:56:59;;;;;;;116.90;14.40;;;;;;;0.70;100.00;98833.22;4989946;28;20358;-54
2023/11/23 06:59:25;;;;;;;109.45;14.27;;;;;;;1.04;100.00;98834.88;4989246;28;20041;-53
2023/11/23 07:01:50;;;;;;;146.70;15.48;;;;;;;1.14;100.00;98831.94;4983615;28;20049;-53
2023/11/23 07:04:15;;;;;;;123.70;12.63;;;;;;;1.81;100.00;98824.75;4985970;28;20029;-53
2023/11/23 07:06:41;;;;;;;131.18;14.55;;;;;;;2.42;100.00;98816.22;4987369;28;20038;-53
2023/11/23 07:09:06;;;;;;;123.82;11.70;;;;;;;1.04;100.00;98819.50;4987804;28;20366;-52
2023/11/23 07:11:32;;;;;;;156.95;17.52;;;;;;;0.88;100.00;98821.31;4987647;28;20061;-53
2023/11/23 07:13:58;;;;;;;106.20;12.95;;;;;;;1.16;100.00;98820.06;4987177;28;20038;-55
2023/11/23 07:16:23;;;;;;;102.50;9.80;;;;;;;0.70;100.00;98821.28;4986935;28;20030;-58
2023/11/23 07:18:48;;;;;;;121.28;14.50;;;;;;;0.55;100.00;98826.50;4986999;28;20117;-54
2023/11/23 07:21:14;;;;;;;121.07;10.20;;;;;;;0.61;100.00;98820.81;4986489;28;20052;-55
2023/11/23 07:23:40;;;;;;;144.35;8.70;;;;;;;0.53;100.00;98825.56;4986552;28;20025;-53
2023/11/23 07:26:06;;;;;;;94.63;7.10;;;;;;;0.56;100.00;98828.25;4988005;28;20686;-53
2023/11/23 07:28:32;;;;;;;116.97;12.57;;;;;;;1.09;100.00;98825.72;4987267;28;20034;-53
2023/11/23 07:30:57;;;;;;;107.03;11.88;;;;;;;1.21;100.00;98833.13;4986398;28;20026;-53
2023/11/23 07:33:34;;;;;;;84.55;6.15;;;;;;;1.17;100.00;98831.22;4988635;28;20042;-53
2023/11/23 07:36:03;;;;;;;114.20;12.27;;;;;;;1.43;100.00;98839.25;4986478;28;20046;-52
2023/11/23 07:38:29;;;;;;;100.93;14.07;;;;;;;1.67;100.00;98838.66;4988727;28;20436;-53
2023/11/23 07:40:56;;;;;;;109.97;8.50;;;;;;;1.80;100.00;98837.50;4986359;28;20088;-53
2023/11/23 07:43:23;;;;;;;109.25;10.57;;;;;;;1.94;100.00;98846.69;4986420;28;20084;-53
2023/11/23 07:45:48;;;;;;;110.97;8.93;;;;;;;1.89;100.00;98848.19;4987387;28;20586;-53
2023/11/23 07:48:14;;;;;;;111.55;9.02;;;;;;;2.03;100.00;98847.91;4989389;28;20711;-53
2023/11/23 07:50:39;;;;;;;166.10;13.32;;;;;;;2.21;100.00;98841.06;4984332;28;20058;-52
2023/11/23 07:53:05;;;;;;;84.13;7.15;;;;;;;2.34;100.00;98839.03;4987311;28;20374;-53
2023/11/23 07:55:31;;;;;;;107.53;10.63;;;;;;;2.37;100.00;98839.13;4985170;28;20462;-52
2023/11/23 07:57:57;;;;;;;125.57;8.77;;;;;;;2.06;100.00;98838.69;4987798;28;20118;-53
2023/11/23 08:00:22;;;;;;;94.93;10.93;;;;;;;2.60;100.00;98839.25;4986084;28;20053;-52
2023/11/23 08:02:47;;;;;;;162.63;13.68;;;;;;;2.92;100.00;98839.72;4984746;28;20017;-52
2023/11/23 08:05:13;;;;;;;106.32;10.10;;;;;;;2.89;100.00;98836.16;4985729;28;20014;-53
2023/11/23 08:07:38;;;;;;;146.65;10.75;;;;;;;2.73;100.00;98835.50;4984890;28;20024;-53
2023/11/23 08:10:08;;;;;;;88.63;10.60;;;;;;;2.59;100.00;98835.81;4988159;28;20030;-53
2023/11/23 08:12:34;;;;;;;113.93;10.82;;;;;;;2.56;100.00;98829.66;4986702;28;20066;-52
2023/11/23 08:14:59;;;;;;;117.15;13.30;;;;;;;2.85;100.00;98832.56;4985393;28;20303;-52
2023/11/23 08:17:26;;;;;;;112.55;11.77;;;;;;;2.72;100.00;98821.75;4985811;28;20140;-53
2023/11/23 08:19:51;;;;;;;101.32;11.00;;;;;;;2.94;100.00;98838.06;4984941;28;20065;-53
2023/11/23 08:22:19;;;;;;;123.38;10.63;;;;;;;2.86;100.00;98831.75;4988693;28;20080;-53
2023/11/23 08:24:45;;;;;;;145.18;13.77;;;;;;;3.08;100.00;98830.06;4986542;28;20049;-53
2023/11/23 08:27:11;;;;;;;101.32;11.50;;;;;;;3.18;100.00;98824.47;4985664;28;20588;-52
2023/11/23 08:29:36;;;;;;;150.48;14.93;;;;;;;3.21;100.00;98811.72;4985661;28;20064;-53
2023/11/23 08:32:02;;;;;;;90.95;8.93;;;;;;;3.01;100.00;98816.09;4987420;28;20041;-53
2023/11/23 08:34:27;;;;;;;63.63;8.50;;;;;;;3.25;100.00;98811.03;4992219;28;20057;-53
2023/11/23 08:36:54;;;;;;;75.50;7.85;;;;;;;3.42;100.00;98808.25;4987715;28;20046;-53
2023/11/23 08:39:20;;;;;;;93.68;8.77;;;;;;;3.41;100.00;98816.75;4990279;28;20420;-52
2023/11/23 08:41:48;;;;;;;127.30;12.15;;;;;;;3.45;100.00;98799.78;4988174;28;20025;-52
2023/11/23 08:44:14;;;;;;;80.15;9.65;;;;;;;3.45;100.00;98808.34;4988976;28;20030;-52
2023/11/23 08:46:41;;;;;;;144.75;12.32;;;;;;;3.42;100.00;98797.97;4985744;28;20038;-53
2023/11/23 08:49:07;;;;;;;122.82;9.60;;;;;;;3.58;100.00;98791.69;4989440;28;20068;-53
2023/11/23 08:51:32;;;;;;;75.78;9.07;;;;;;;3.44;100.00;98783.44;4990265;28;20074;-53
2023/11/23 08:53:58;;;;;;;77.85;13.02;;;;;;;3.60;100.00;98786.63;4987418;28;20224;-53
2023/11/23 08:56:23;;;;;;;97.30;12.00;;;;;;;3.93;100.00;98768.06;4988206;28;20042;-53
2023/11/23 08:58:49;;;;;;;118.22;14.32;;;;;;;3.94;100.00;98769.84;4987456;28;20061;-52
2023/11/23 09:01:14;;;;;;;78.93;9.05;;;;;;;3.83;100.00;98763.41;4989479;28;20099;-52
2023/11/23 09:03:40;;;;;;;115.80;10.52;;;;;;;3.91;100.00;98762.00;4989496;28;20026;-53
2023/11/23 09:06:08;;;;;;;73.75;8.93;;;;;;;4.16;100.00;98753.44;4988727;28;20072;-53
2023/11/23 09:08:34;;;;;;;70.15;9.00;;;;;;;4.13;100.00;98752.47;4991114;28;20037;-53
2023/11/23 09:10:59;;;;;;;78.30;7.63;;;;;;;4.04;100.00;98751.31;4987150;28;20046;-53
2023/11/23 09:13:29;;;;;;;107.45;11.15;;;;;;;4.14;100.00;98742.22;4988044;28;20069;-54
2023/11/23 09:15:55;;;;;;;124.90;10.65;;;;;;;4.40;100.00;98744.81;4989063;28;20628;-52
2023/11/23 09:18:21;;;;;;;76.38;8.93;;;;;;;4.40;100.00;98746.50;4988328;28;20030;-53
2023/11/23 09:20:47;;;;;;;118.85;13.13;;;;;;;4.40;100.00;98749.06;4986723;28;20047;-52
2023/11/23 09:23:13;;;;;;;98.47;7.70;;;;;;;4.67;100.00;98750.81;4990552;28;20383;-53
2023/11/23 09:25:39;;;;;;;83.70;10.38;;;;;;;4.78;100.00;98743.41;4987723;28;20501;-53
2023/11/23 09:28:05;;;;;;;47.90;8.20;;;;;;;5.10;100.00;98732.38;4992302;28;20018;-52
2023/11/23 09:30:30;;;;;;;80.25;9.80;;;;;;;5.32;100.00;98737.38;4988683;28;20033;-53
2023/11/23 09:32:56;;;;;;;78.68;8.23;;;;;;;4.84;100.00;98735.00;4988089;28;22165;-53
2023/11/23 09:35:21;;;;;;;71.60;10.60;;;;;;;4.81;100.00;98728.94;4987494;28;20030;-53
2023/11/23 09:37:47;;;;;;;144.88;14.20;;;;;;;5.06;100.00;98726.25;4986348;28;20373;-53
2023/11/23 09:40:20;;;;;;;84.07;9.05;;;;;;;4.98;100.00;98713.13;4988018;28;20038;-52
2023/11/23 09:42:47;;;;;;;108.68;10.70;;;;;;;5.13;100.00;98714.41;4987734;28;20018;-53
2023/11/23 09:45:16;;;;;;;73.85;10.13;;;;;;;5.31;100.00;98712.38;4988874;28;20037;-53
2023/11/23 09:47:43;;;;;;;94.30;9.90;;;;;;;5.52;100.00;98703.50;4987172;28;20577;-52
2023/11/23 09:50:13;;;;;;;87.22;9.10;;;;;;;5.71;100.00;98699.75;4987814;28;20034;-53
2023/11/23 09:52:41;;;;;;;69.68;9.15;;;;;;;5.92;100.00;98684.78;4986690;28;20019;-54
2023/11/23 09:55:09;;;;;;;66.05;7.90;;;;;;;5.93;100.00;98681.38;4988798;28;20572;-54
2023/11/23 09:57:35;;;;;;;88.38;13.90;;;;;;;5.73;100.00;98673.97;4989596;28;20038;-53
2023/11/23 10:00:08;;;;;;;70.03;9.32;;;;;;;5.64;100.00;98676.31;4986261;28;20107;-53
2023/11/23 10:02:36;;;;;;;158.55;33.90;;;;;;;3.91;100.00;98671.91;4986856;28;20046;-53
2023/11/23 10:05:02;;;;;;;218.43;99.72;;;;;;;3.96;100.00;98656.59;4985685;28;20033;-52
2023/11/23 10:07:28;;;;;;;281.23;104.07;;;;;;;3.81;100.00;98629.53;4987595;28;20069;-53
2023/11/23 10:09:54;;;;;;;368.92;128.05;;;;;;;3.90;100.00;98613.53;4986094;28;20049;-52
2023/11/23 10:12:21;;;;;;;211.63;46.53;;;;;;;4.07;100.00;98611.50;4988449;28;20038;-53
2023/11/23 10:14:47;;;;;;;574.67;122.72;;;;;;;3.95;100.00;98618.81;4987728;28;20025;-53
2023/11/23 10:17:13;;;;;;;276.42;65.43;;;;;;;4.06;100.00;98612.34;4991459;28;20034;-52
2023/11/23 10:19:38;;;;;;;80.90;10.45;;;;;;;4.12;100.00;98614.25;4994761;28;20080;-53
2023/11/23 10:22:04;;;;;;;82.20;14.80;;;;;;;4.13;100.00;98616.84;4990471;28;20468;-53
2023/11/23 10:24:30;;;;;;;114.78;14.93;;;;;;;4.09;100.00;98621.88;4992862;28;20106;-53
2023/11/23 10:26:56;;;;;;;150.20;14.85;;;;;;;4.37;100.00;98630.47;4990575;28;20049;-53
2023/11/23 10:29:28;;;;;;;89.32;11.45;;;;;;;4.33;100.00;98638.94;4992640;28;20160;-53
2023/11/23 10:31:55;;;;;;;132.68;11.25;;;;;;;4.95;100.00;98621.06;4992317;28;20038;-54
2023/11/23 10:34:21;;;;;;;72.82;5.63;;;;;;;5.20;100.00;98620.94;4992577;28;20084;-53
2023/11/23 10:36:48;;;;;;;108.43;7.47;;;;;;;5.29;100.00;98605.72;4991104;28;20038;-53
2023/11/23 10:39:18;;;;;;;102.88;7.03;;;;;;;-148.24;100.00;61531.34;4993057;28;20022;-53
2023/11/23 10:41:44;;;;;;;93.57;9.00;;;;;;;-148.24;100.00;61531.34;4991638;28;20523;-54
2023/11/23 10:44:12;;;;;;;80.95;8.07;;;;;;;-148.24;100.00;61531.34;4994889;28;20022;-54
2023/11/23 10:46:38;;;;;;;39.15;6.38;;;;;;;-148.24;100.00;61531.34;4992448;28;20098;-54
2023/11/23 10:49:05;;;;;;;93.07;7.55;;;;;;;6.51;100.00;98588.97;4990822;28;20164;-54
2023/11/23 10:51:32;;;;;;;78.50;14.20;;;;;;;5.93;100.00;98585.81;4992788;28;20030;-54
2023/11/23 10:53:58;;;;;;;91.22;7.22;;;;;;;5.92;100.00;98581.50;4991330;28;20429;-54
2023/11/23 10:56:26;;;;;;;80.50;8.73;;;;;;;5.91;100.00;98567.75;4992182;28;20061;-54
2023/11/23 10:58:57;;;;;;;92.18;6.97;;;;;;;5.94;100.00;98570.38;4991841;28;20030;-54
2023/11/23 11:01:25;;;;;;;56.85;7.57;;;;;;;6.06;100.00;98579.31;4989805;28;20034;-54
2023/11/23 11:03:52;;;;;;;112.43;10.57;;;;;;;6.28;100.00;98565.19;4990225;28;20058;-54
2023/11/23 11:06:20;;;;;;;64.20;7.85;;;;;;;6.24;100.00;98565.97;4992085;28;20030;-53